createdAt,value
2023-01-13T00:04:45.499Z,2.90
2023-01-13T00:09:48.887Z,2.50
2023-01-13T00:14:52.267Z,3.00
2023-01-13T00:19:57.606Z,3.17
2023-01-13T00:25:01.627Z,3.10
2023-01-13T00:30:06.282Z,3.10
2023-01-13T00:35:11.418Z,3.17
2023-01-13T00:40:15.611Z,3.43
2023-01-13T00:45:19.228Z,2.80
2023-01-13T00:50:24.298Z,3.80
2023-01-13T00:55:27.837Z,3.50
2023-01-13T01:00:31.325Z,3.50
2023-01-13T01:05:36.594Z,3.50
2023-01-13T01:10:40.195Z,3.60
2023-01-13T01:15:44.018Z,4.07
2023-01-13T01:20:49.214Z,3.73
2023-01-13T01:25:52.597Z,3.80
2023-01-13T01:30:58.501Z,4.20
2023-01-13T01:36:04.104Z,3.67
2023-01-13T01:41:08.197Z,4.40
2023-01-13T01:46:11.525Z,3.87
2023-01-13T01:51:16.638Z,4.10
2023-01-13T01:56:21.215Z,4.20
2023-01-13T02:01:24.908Z,4.20
2023-01-13T02:06:31.360Z,4.20
2023-01-13T02:11:54.355Z,4.13
2023-01-13T02:17:12.196Z,3.90
2023-01-13T02:22:35.035Z,5.00
2023-01-13T02:27:54.022Z,4.47
2023-01-13T02:33:09.385Z,5.33
2023-01-13T02:38:16.483Z,5.30
2023-01-13T02:43:42.425Z,5.63
2023-01-13T02:48:49.948Z,5.73
2023-01-13T02:54:01.286Z,5.73
2023-01-13T02:59:05.791Z,5.67
2023-01-13T03:04:15.073Z,5.30
2023-01-13T03:09:23.943Z,5.70
2023-01-13T03:14:36.429Z,6.03
2023-01-13T03:19:48.066Z,5.93
2023-01-13T03:24:56.466Z,6.67
2023-01-13T03:30:04.576Z,6.60
2023-01-13T03:35:15.096Z,5.70
2023-01-13T03:40:22.636Z,5.90
2023-01-13T03:45:26.424Z,5.80
2023-01-13T03:50:36.991Z,6.10
2023-01-13T03:55:45.216Z,5.53
2023-01-13T04:00:54.100Z,5.27
2023-01-13T04:06:05.351Z,5.43
2023-01-13T04:11:15.639Z,4.30
2023-01-13T04:16:19.215Z,4.33
2023-01-13T04:21:24.110Z,4.83
2023-01-13T04:26:27.492Z,4.80
2023-01-13T04:31:31.102Z,4.70
2023-01-13T04:36:35.894Z,4.40
2023-01-13T04:41:54.407Z,4.80
2023-01-13T04:46:58.792Z,5.37
2023-01-13T04:52:04.139Z,5.50
2023-01-13T04:57:07.695Z,5.53
2023-01-13T05:02:15.138Z,4.83
2023-01-13T05:07:20.121Z,4.90
2023-01-13T05:12:41.033Z,6.10
2023-01-13T05:17:45.010Z,5.43
2023-01-13T05:23:07.055Z,5.77
2023-01-13T05:28:11.327Z,6.77
2023-01-13T05:33:16.594Z,6.03
2023-01-13T05:38:21.740Z,6.33
2023-01-13T05:43:25.705Z,6.17
2023-01-13T05:48:31.889Z,6.53
2023-01-13T05:53:37.492Z,6.53
2023-01-13T05:58:41.207Z,5.73
2023-01-13T06:03:44.881Z,6.23
2023-01-13T06:08:49.624Z,6.50
2023-01-13T06:13:52.988Z,6.93
2023-01-13T06:18:56.384Z,7.57
2023-01-13T06:24:01.569Z,7.17
2023-01-13T06:29:05.544Z,7.37
2023-01-13T06:34:12.603Z,7.10
2023-01-13T06:39:21.903Z,7.47
2023-01-13T06:44:25.757Z,7.53
2023-01-13T06:49:29.283Z,7.53
2023-01-13T06:54:34.770Z,6.77
2023-01-13T06:59:38.251Z,7.70
2023-01-13T07:04:41.659Z,8.13
2023-01-13T07:09:46.435Z,10.37
2023-01-13T07:15:07.260Z,8.30
2023-01-13T07:20:12.011Z,8.20
2023-01-13T07:25:16.871Z,8.00
2023-01-13T07:30:20.762Z,7.80
2023-01-13T07:35:24.992Z,8.47
2023-01-13T07:40:29.808Z,8.07
2023-01-13T07:45:33.216Z,9.20
2023-01-13T07:50:36.671Z,7.87
2023-01-13T07:55:44.151Z,7.87
2023-01-13T08:00:47.914Z,8.17
2023-01-13T08:05:51.600Z,7.40
2023-01-13T08:10:59.861Z,6.73
2023-01-13T08:16:04.903Z,8.17
2023-01-13T08:21:10.613Z,8.17
2023-01-13T08:26:17.251Z,8.70
2023-01-13T08:31:20.816Z,8.73
2023-01-13T08:36:25.655Z,7.87
2023-01-13T08:41:46.936Z,8.10
2023-01-13T08:46:50.375Z,9.83
2023-01-13T08:51:54.119Z,8.87
2023-01-13T08:56:58.991Z,8.83
2023-01-13T09:02:03.534Z,9.67
2023-01-13T09:07:07.013Z,9.80
2023-01-13T09:12:31.301Z,8.90
2023-01-13T09:17:35.149Z,9.60
2023-01-13T09:22:39.221Z,10.07
2023-01-13T09:27:44.310Z,9.97
2023-01-13T09:32:47.681Z,10.47
2023-01-13T09:37:51.021Z,10.80
2023-01-13T09:43:18.733Z,11.30
2023-01-13T09:48:25.975Z,10.47
2023-01-13T09:53:32.598Z,9.87
2023-01-13T09:58:37.500Z,11.03
2023-01-13T10:03:41.631Z,10.93
2023-01-13T10:08:46.719Z,10.97
2023-01-13T10:13:56.862Z,11.80
2023-01-13T10:19:06.766Z,9.53
2023-01-13T10:24:19.709Z,11.27
2023-01-13T10:29:26.542Z,10.47
2023-01-13T10:34:30.775Z,13.30
2023-01-13T10:39:42.716Z,12.60
2023-01-13T10:44:52.874Z,12.70
2023-01-13T10:50:21.074Z,12.63
2023-01-13T10:55:28.918Z,11.30
2023-01-13T11:00:35.714Z,12.33
2023-01-13T11:05:39.490Z,15.63
2023-01-13T11:10:48.139Z,12.70
2023-01-13T11:15:57.369Z,10.83
2023-01-13T11:21:01.622Z,12.20
2023-01-13T11:26:11.599Z,11.83
2023-01-13T11:31:24.641Z,14.30
2023-01-13T11:36:34.960Z,12.83
2023-01-13T11:41:45.195Z,14.00
2023-01-13T11:46:52.384Z,13.13
2023-01-13T11:52:02.365Z,13.23
2023-01-13T11:57:19.276Z,11.60
2023-01-13T12:02:41.962Z,12.30
2023-01-13T12:07:53.375Z,13.67
2023-01-13T12:13:04.723Z,12.40
2023-01-13T12:18:34.942Z,12.60
2023-01-13T12:23:42.888Z,12.27
2023-01-13T12:28:50.598Z,12.13
2023-01-13T12:34:09.972Z,12.47
2023-01-13T12:39:21.601Z,13.10
2023-01-13T12:44:24.988Z,12.67
2023-01-13T12:49:32.574Z,13.13
2023-01-13T12:55:17.620Z,13.87
2023-01-13T13:00:21.957Z,13.93
2023-01-13T13:05:56.351Z,15.70
2023-01-13T13:11:29.795Z,13.57
2023-01-13T13:17:01.137Z,14.40
2023-01-13T13:22:36.956Z,14.53
2023-01-13T13:27:47.490Z,12.13
2023-01-13T13:33:09.712Z,14.43
2023-01-13T13:38:43.737Z,14.00
2023-01-13T13:44:06.475Z,12.43
2023-01-13T13:49:09.855Z,13.47
2023-01-13T13:54:16.447Z,13.17
2023-01-13T13:59:24.768Z,12.73
2023-01-13T14:04:31.301Z,13.20
2023-01-13T14:09:43.174Z,12.00
2023-01-13T14:14:49.234Z,12.40
2023-01-13T14:19:55.149Z,11.73
2023-01-13T14:24:59.107Z,14.40
2023-01-13T14:30:04.309Z,12.97
2023-01-13T14:35:09.127Z,13.77
2023-01-13T14:40:46.580Z,13.73
2023-01-13T14:45:59.747Z,12.77
2023-01-13T14:51:05.863Z,13.83
2023-01-13T14:56:42.660Z,13.57
2023-01-13T15:01:47.587Z,13.90
2023-01-13T15:06:55.802Z,12.70
2023-01-13T15:11:59.400Z,13.73
2023-01-13T15:17:04.523Z,13.93
2023-01-13T15:22:07.982Z,14.67
2023-01-13T15:27:20.352Z,14.93
2023-01-13T15:32:25.475Z,15.70
2023-01-13T15:37:29.105Z,18.33
2023-01-13T15:42:49.958Z,18.40
2023-01-13T15:47:55.667Z,18.07
2023-01-13T15:52:59.030Z,21.60
2023-01-13T15:58:03.258Z,19.57
2023-01-13T16:03:08.849Z,17.40
2023-01-13T16:08:15.596Z,15.20
2023-01-13T16:13:19.332Z,15.07
2023-01-13T16:18:24.944Z,15.17
2023-01-13T16:23:28.322Z,15.23
2023-01-13T16:28:31.764Z,16.00
2023-01-13T16:33:36.676Z,15.60
2023-01-13T16:38:40.420Z,16.10
2023-01-13T16:43:45.247Z,18.00
2023-01-13T16:48:52.974Z,17.33
2023-01-13T16:53:56.659Z,17.77
2023-01-13T16:59:03.650Z,24.50
2023-01-13T17:04:09.230Z,18.00
2023-01-13T17:09:17.934Z,16.03
2023-01-13T17:14:23.529Z,14.90
2023-01-13T17:19:28.465Z,15.03
2023-01-13T17:24:35.211Z,13.27
2023-01-13T17:29:39.764Z,12.93
2023-01-13T17:34:44.968Z,12.87
2023-01-13T17:39:48.720Z,11.97
2023-01-13T17:44:52.274Z,11.03
2023-01-13T17:49:57.725Z,11.23
2023-01-13T17:55:01.641Z,10.60
2023-01-13T18:00:08.131Z,11.93
2023-01-13T18:05:21.913Z,13.43
2023-01-13T18:10:25.807Z,12.77
2023-01-13T18:15:30.440Z,13.23
2023-01-13T18:20:52.775Z,12.73
2023-01-13T18:26:15.937Z,15.80
2023-01-13T18:31:19.578Z,16.20
2023-01-13T18:36:25.041Z,16.43
2023-01-13T18:41:46.064Z,18.33
2023-01-13T18:46:49.711Z,20.37
2023-01-13T18:51:54.735Z,17.50
2023-01-13T18:56:58.264Z,19.00
2023-01-13T19:02:02.287Z,18.80
2023-01-13T19:07:08.693Z,19.03
2023-01-13T19:12:14.754Z,18.10
2023-01-13T19:17:18.388Z,18.17
2023-01-13T19:22:29.832Z,16.53
2023-01-13T19:27:33.655Z,17.63
2023-01-13T19:32:37.183Z,15.47
2023-01-13T19:37:43.670Z,12.23
2023-01-13T19:43:04.660Z,13.67
2023-01-13T19:48:09.127Z,13.87
2023-01-13T19:53:17.268Z,12.37
2023-01-13T19:58:23.177Z,14.03
2023-01-13T20:03:31.150Z,11.40
2023-01-13T20:08:36.124Z,12.90
2023-01-13T20:13:39.929Z,14.70
2023-01-13T20:18:43.688Z,13.50
2023-01-13T20:23:51.015Z,10.90
2023-01-13T20:28:54.406Z,10.17
2023-01-13T20:33:57.833Z,10.10
2023-01-13T20:39:04.514Z,8.53
2023-01-13T20:44:11.437Z,8.60
2023-01-13T20:49:16.653Z,9.90
2023-01-13T20:54:22.202Z,8.60
2023-01-13T20:59:25.579Z,8.70
2023-01-13T21:04:29.417Z,9.27
2023-01-13T21:09:34.203Z,9.37
2023-01-13T21:14:54.767Z,9.73
2023-01-13T21:19:58.439Z,9.40
2023-01-13T21:25:03.998Z,9.13
2023-01-13T21:30:09.337Z,10.70
2023-01-13T21:35:13.529Z,9.17
2023-01-13T21:40:20.114Z,9.83
2023-01-13T21:45:41.269Z,10.70
2023-01-13T21:50:45.387Z,10.23
2023-01-13T21:55:53.321Z,11.67
2023-01-13T22:00:57.066Z,11.80
2023-01-13T22:06:00.893Z,11.27
2023-01-13T22:11:06.147Z,12.03
2023-01-13T22:16:10.192Z,15.07
2023-01-13T22:21:13.646Z,12.43
2023-01-13T22:26:18.687Z,11.77
2023-01-13T22:31:24.392Z,12.17
2023-01-13T22:36:27.830Z,12.17
2023-01-13T22:41:32.624Z,12.10
2023-01-13T22:46:36.429Z,13.27
2023-01-13T22:51:40.224Z,18.60
2023-01-13T22:56:45.112Z,15.60
2023-01-13T23:01:48.491Z,12.73
2023-01-13T23:06:51.818Z,12.43
2023-01-13T23:11:57.480Z,11.90
2023-01-13T23:17:01.197Z,11.90
2023-01-13T23:22:04.609Z,15.30
2023-01-13T23:27:09.449Z,11.37
2023-01-13T23:32:13.205Z,13.13
2023-01-13T23:37:16.884Z,12.13
2023-01-13T23:42:21.711Z,11.17
2023-01-13T23:47:25.389Z,10.77
2023-01-13T23:52:28.770Z,11.83
2023-01-13T23:57:33.927Z,13.20
